createdAt,value
2022-08-17T00:01:10.122Z,25.13
2022-08-17T00:03:37.403Z,25.26
2022-08-17T00:06:04.966Z,25.36
2022-08-17T00:13:44.950Z,25.40
2022-08-17T00:16:10.887Z,25.44
2022-08-17T00:19:01.851Z,25.14
2022-08-17T00:21:25.253Z,25.08
2022-08-17T00:23:51.470Z,25.03
2022-08-17T00:26:43.656Z,24.72
2022-08-17T00:29:03.971Z,24.82
2022-08-17T00:31:29.911Z,24.98
2022-08-17T00:33:55.852Z,24.97
2022-08-17T00:36:21.971Z,25.04
2022-08-17T00:38:47.911Z,24.83
2022-08-17T00:41:13.859Z,24.76
2022-08-17T00:43:42.569Z,24.81
2022-08-17T00:46:08.529Z,24.89
2022-08-17T00:48:34.475Z,24.98
2022-08-17T00:51:01.027Z,24.97
2022-08-17T00:53:26.975Z,24.97
2022-08-17T00:55:52.920Z,24.92
2022-08-17T00:58:19.278Z,24.90
2022-08-17T01:01:01.778Z,24.92
2022-08-17T01:03:28.051Z,24.72
2022-08-17T01:05:53.994Z,24.79
2022-08-17T01:08:20.001Z,24.53
2022-08-17T01:10:59.259Z,24.42
2022-08-17T01:13:27.428Z,24.43
2022-08-17T01:15:53.956Z,24.43
2022-08-17T01:18:19.907Z,24.55
2022-08-17T01:20:48.659Z,24.39
2022-08-17T01:29:03.525Z,24.36
2022-08-17T01:34:23.522Z,24.11
2022-08-17T01:37:02.366Z,23.98
2022-08-17T01:39:28.364Z,24.05
2022-08-17T01:41:54.340Z,24.06
2022-08-17T01:47:14.612Z,24.14
2022-08-17T01:49:40.541Z,24.12
2022-08-17T01:57:59.220Z,24.15
2022-08-17T02:09:16.407Z,23.95
2022-08-17T04:48:37.432Z,23.47
2022-08-17T04:51:03.634Z,23.93
2022-08-17T06:03:13.758Z,27.24
2022-08-17T06:05:39.711Z,27.39
